createdAt,value
2023-04-09T00:01:22.310Z,35.58
2023-04-09T00:03:51.278Z,35.47
2023-04-09T00:06:21.139Z,35.36
2023-04-09T00:08:50.601Z,35.32
2023-04-09T00:11:19.839Z,35.27
2023-04-09T00:13:49.392Z,35.22
2023-04-09T00:16:18.538Z,35.25
2023-04-09T00:18:49.658Z,35.22
2023-04-09T00:21:18.732Z,35.21
2023-04-09T00:23:47.224Z,35.12
2023-04-09T00:26:17.192Z,35.07
2023-04-09T00:28:47.285Z,35.00
2023-04-09T00:31:27.126Z,34.99
2023-04-09T00:34:04.582Z,34.99
2023-04-09T00:36:33.067Z,34.89
2023-04-09T00:39:03.336Z,34.89
2023-04-09T00:41:33.315Z,34.86
2023-04-09T00:44:02.696Z,34.84
2023-04-09T00:46:33.419Z,34.92
2023-04-09T00:49:03.458Z,34.99
2023-04-09T00:51:34.140Z,35.00
2023-04-09T00:54:04.881Z,34.95
2023-04-09T00:56:34.402Z,34.90
2023-04-09T00:59:09.770Z,34.82
2023-04-09T01:01:43.614Z,34.96
2023-04-09T01:04:13.954Z,34.86
2023-04-09T01:07:03.282Z,34.75
2023-04-09T01:10:01.021Z,35.07
2023-04-09T01:12:34.630Z,34.83
2023-04-09T01:15:10.767Z,34.82
2023-04-09T01:17:54.257Z,35.03
2023-04-09T01:20:41.218Z,33.88
2023-04-09T01:23:33.100Z,33.30
2023-04-09T01:26:24.067Z,34.56
2023-04-09T01:29:01.856Z,34.45
2023-04-09T01:31:43.842Z,33.57
2023-04-09T01:34:14.494Z,33.01
2023-04-09T01:36:46.342Z,32.96
2023-04-09T01:39:15.222Z,32.78
2023-04-09T01:41:44.940Z,32.78
2023-04-09T01:44:14.501Z,32.76
2023-04-09T01:46:44.751Z,32.67
2023-04-09T01:49:14.219Z,32.64
2023-04-09T01:51:44.833Z,32.59
2023-04-09T01:54:14.258Z,32.58
2023-04-09T01:56:48.996Z,33.13
2023-04-09T01:59:18.380Z,33.20
2023-04-09T02:01:50.795Z,32.77
2023-04-09T02:04:37.163Z,33.74
2023-04-09T02:07:24.340Z,34.19
2023-04-09T02:09:55.217Z,34.13
2023-04-09T02:12:26.409Z,34.08
2023-04-09T02:14:55.894Z,33.27
2023-04-09T02:17:25.065Z,33.90
2023-04-09T02:19:54.109Z,34.02
2023-04-09T02:22:23.534Z,33.99
2023-04-09T02:24:53.397Z,32.84
2023-04-09T02:27:22.816Z,32.69
2023-04-09T02:29:51.612Z,32.57
2023-04-09T02:32:21.917Z,32.43
2023-04-09T02:34:51.454Z,32.36
2023-04-09T02:37:20.913Z,32.66
2023-04-09T02:39:49.953Z,32.27
2023-04-09T02:42:19.336Z,32.26
2023-04-09T02:44:49.281Z,32.11
2023-04-09T02:47:19.080Z,32.07
2023-04-09T02:49:48.755Z,32.19
2023-04-09T02:52:17.273Z,32.45
2023-04-09T02:54:46.480Z,32.15
2023-04-09T02:57:14.935Z,32.67
2023-04-09T02:59:43.970Z,32.37
2023-04-09T03:02:14.927Z,32.12
2023-04-09T03:04:46.956Z,32.03
2023-04-09T03:07:19.571Z,31.95
2023-04-09T03:09:52.075Z,31.94
2023-04-09T03:12:24.122Z,32.42
2023-04-09T03:14:55.295Z,32.73
2023-04-09T03:17:27.742Z,32.74
2023-04-09T03:20:07.689Z,32.39
2023-04-09T03:22:43.999Z,32.12
2023-04-09T03:25:27.612Z,32.89
2023-04-09T03:28:09.636Z,32.91
2023-04-09T03:30:44.689Z,33.00
2023-04-09T03:33:19.413Z,32.85
2023-04-09T03:36:06.013Z,32.90
2023-04-09T03:38:47.758Z,32.76
2023-04-09T03:41:34.010Z,32.86
2023-04-09T03:44:11.035Z,32.64
2023-04-09T03:46:57.362Z,32.58
2023-04-09T03:49:35.006Z,32.41
2023-04-09T03:52:13.623Z,32.37
2023-04-09T03:54:48.616Z,32.23
2023-04-09T03:57:24.021Z,32.03
2023-04-09T04:00:07.637Z,32.00
2023-04-09T04:03:06.289Z,31.81
2023-04-09T04:06:09.951Z,31.79
2023-04-09T04:08:52.460Z,31.54
2023-04-09T04:11:34.831Z,31.46
2023-04-09T04:14:05.517Z,31.39
2023-04-09T04:16:42.428Z,31.29
2023-04-09T04:19:17.029Z,31.33
2023-04-09T04:21:53.986Z,31.32
2023-04-09T04:24:26.300Z,31.32
2023-04-09T04:26:55.438Z,31.14
2023-04-09T04:29:35.373Z,31.14
2023-04-09T04:32:07.496Z,31.01
2023-04-09T04:34:42.091Z,30.97
2023-04-09T04:37:23.488Z,30.83
2023-04-09T04:40:07.014Z,30.72
2023-04-09T04:42:42.030Z,30.62
2023-04-09T04:45:15.450Z,30.59
2023-04-09T04:47:54.513Z,30.50
2023-04-09T04:50:24.492Z,30.46
2023-04-09T04:53:06.708Z,30.46
2023-04-09T04:55:44.683Z,30.50
2023-04-09T04:58:19.030Z,31.43
2023-04-09T05:00:57.650Z,30.75
2023-04-09T05:03:33.469Z,30.46
2023-04-09T05:06:21.917Z,30.46
2023-04-09T05:08:53.831Z,30.42
2023-04-09T05:11:23.591Z,30.47
2023-04-09T05:13:53.514Z,30.30
2023-04-09T05:16:25.577Z,30.24
2023-04-09T05:19:05.726Z,30.20
2023-04-09T05:21:35.331Z,30.15
2023-04-09T05:24:07.703Z,30.14
2023-04-09T05:26:39.041Z,30.09
2023-04-09T05:29:09.726Z,30.01
2023-04-09T05:31:42.612Z,29.98
2023-04-09T05:34:23.505Z,29.97
2023-04-09T05:36:55.404Z,30.02
2023-04-09T05:39:26.040Z,29.90
2023-04-09T05:41:55.154Z,30.58
2023-04-09T05:44:31.102Z,30.39
2023-04-09T05:47:13.960Z,30.02
2023-04-09T05:50:07.587Z,29.89
2023-04-09T05:52:38.920Z,29.73
2023-04-09T05:55:10.804Z,29.67
2023-04-09T05:57:46.716Z,29.70
2023-04-09T06:00:17.407Z,29.69
2023-04-09T06:02:47.139Z,29.65
2023-04-09T06:05:18.938Z,29.60
2023-04-09T06:07:50.620Z,29.51
2023-04-09T06:10:20.024Z,29.44
2023-04-09T06:12:53.568Z,29.48
2023-04-09T06:15:23.569Z,29.64
2023-04-09T06:17:54.119Z,29.32
2023-04-09T06:20:23.559Z,29.21
2023-04-09T06:22:55.113Z,29.14
2023-04-09T06:25:25.959Z,29.13
2023-04-09T06:27:55.636Z,29.14
2023-04-09T06:30:26.481Z,29.09
2023-04-09T06:32:55.835Z,29.04
2023-04-09T06:35:34.252Z,29.10
2023-04-09T06:38:03.658Z,28.99
2023-04-09T06:40:36.103Z,29.69
2023-04-09T06:43:09.166Z,29.62
2023-04-09T06:45:51.491Z,29.03
2023-04-09T06:48:24.096Z,28.88
2023-04-09T06:50:55.206Z,28.84
2023-04-09T06:53:25.996Z,29.40
2023-04-09T06:55:58.084Z,28.83
2023-04-09T06:58:35.077Z,28.75
2023-04-09T07:01:07.495Z,28.71
2023-04-09T07:03:38.947Z,28.60
2023-04-09T07:06:11.755Z,28.57
2023-04-09T07:08:43.140Z,28.77
2023-04-09T07:11:13.884Z,28.59
2023-04-09T07:13:44.915Z,28.56
2023-04-09T07:16:14.196Z,28.45
2023-04-09T07:18:46.306Z,28.38
2023-04-09T07:21:18.472Z,28.24
2023-04-09T07:23:49.992Z,28.15
2023-04-09T07:26:19.532Z,28.05
2023-04-09T07:28:50.677Z,28.12
2023-04-09T07:31:19.713Z,28.19
2023-04-09T07:33:50.005Z,28.20
2023-04-09T07:36:19.905Z,28.32
2023-04-09T07:38:51.774Z,28.44
2023-04-09T07:41:23.809Z,28.96
2023-04-09T07:43:53.988Z,29.12
2023-04-09T07:46:23.547Z,29.11
2023-04-09T07:48:55.245Z,29.06
2023-04-09T07:51:31.370Z,29.03
2023-04-09T07:54:03.446Z,29.02
2023-04-09T07:56:34.813Z,28.88
2023-04-09T07:59:04.085Z,28.81
2023-04-09T08:01:35.282Z,28.85
2023-04-09T08:04:07.536Z,28.90
2023-04-09T08:06:39.394Z,28.93
2023-04-09T08:09:11.686Z,28.88
2023-04-09T08:11:46.842Z,28.88
2023-04-09T08:14:20.204Z,28.88
2023-04-09T08:16:52.167Z,28.86
2023-04-09T08:19:27.625Z,28.92
2023-04-09T08:22:02.726Z,28.86
2023-04-09T08:24:42.653Z,28.89
2023-04-09T08:27:17.574Z,28.79
2023-04-09T08:30:01.358Z,28.67
2023-04-09T08:32:37.580Z,28.53
2023-04-09T08:35:22.273Z,28.44
2023-04-09T08:37:52.354Z,27.86
2023-04-09T08:40:39.330Z,28.72
2023-04-09T08:43:29.951Z,28.14
2023-04-09T08:46:21.514Z,27.54
2023-04-09T08:49:03.236Z,27.35
2023-04-09T08:51:49.322Z,27.26
2023-04-09T08:54:31.898Z,28.08
2023-04-09T08:57:13.625Z,27.52
2023-04-09T08:59:45.553Z,27.27
2023-04-09T09:02:16.590Z,27.08
2023-04-09T09:04:49.702Z,26.97
2023-04-09T09:07:19.893Z,26.85
2023-04-09T09:10:01.760Z,26.75
2023-04-09T09:12:44.161Z,26.75
2023-04-09T09:15:35.760Z,26.79
2023-04-09T09:18:07.905Z,26.83
2023-04-09T09:20:39.246Z,26.77
2023-04-09T09:23:11.329Z,26.79
2023-04-09T09:25:44.221Z,26.73
2023-04-09T09:28:15.046Z,26.70
2023-04-09T09:30:49.206Z,26.74
2023-04-09T09:33:19.241Z,26.76
2023-04-09T09:36:02.229Z,26.84
2023-04-09T09:38:33.465Z,26.75
2023-04-09T09:41:20.195Z,26.79
2023-04-09T09:43:51.380Z,26.86
2023-04-09T09:46:23.492Z,26.83
2023-04-09T09:48:54.374Z,26.68
2023-04-09T09:51:33.185Z,26.63
2023-04-09T09:54:05.447Z,26.66
2023-04-09T09:56:43.377Z,26.76
2023-04-09T09:59:27.694Z,26.69
2023-04-09T10:02:08.124Z,26.67
2023-04-09T10:04:41.172Z,26.53
2023-04-09T10:07:17.863Z,26.49
2023-04-09T10:09:58.157Z,26.50
2023-04-09T10:12:32.498Z,26.48
2023-04-09T10:15:07.334Z,26.36
2023-04-09T10:17:39.096Z,26.43
2023-04-09T10:20:27.749Z,26.40
2023-04-09T10:23:09.740Z,26.41
2023-04-09T10:25:42.211Z,26.41
2023-04-09T10:28:19.729Z,26.40
2023-04-09T10:30:52.249Z,26.41
2023-04-09T10:33:31.689Z,26.34
2023-04-09T10:36:07.403Z,26.28
2023-04-09T10:38:44.865Z,26.28
2023-04-09T10:41:33.535Z,27.57
2023-04-09T10:44:07.643Z,26.54
2023-04-09T10:46:38.681Z,26.40
2023-04-09T10:49:19.613Z,26.34
2023-04-09T10:52:05.616Z,26.31
2023-04-09T10:54:35.232Z,26.30
2023-04-09T10:57:09.603Z,26.19
2023-04-09T11:00:04.677Z,26.09
2023-04-09T11:03:06.114Z,26.19
2023-04-09T11:05:42.812Z,26.07
2023-04-09T11:08:14.809Z,26.03
2023-04-09T11:10:52.197Z,26.05
2023-04-09T11:13:23.537Z,26.09
2023-04-09T11:16:00.277Z,26.10
2023-04-09T11:18:35.062Z,26.08
2023-04-09T11:21:07.200Z,26.74
2023-04-09T11:23:38.214Z,27.23
2023-04-09T11:26:11.652Z,27.25
2023-04-09T11:28:45.685Z,26.76
2023-04-09T11:31:17.474Z,26.74
2023-04-09T11:33:48.277Z,26.31
2023-04-09T11:36:19.768Z,26.78
2023-04-09T11:38:52.141Z,27.26
2023-04-09T11:41:43.945Z,27.51
2023-04-09T11:44:15.372Z,26.81
2023-04-09T11:46:50.983Z,26.93
2023-04-09T11:49:22.091Z,27.03
2023-04-09T11:51:51.909Z,27.00
2023-04-09T11:54:22.074Z,27.07
2023-04-09T11:56:59.145Z,27.12
2023-04-09T11:59:35.321Z,27.32
2023-04-09T12:02:09.762Z,27.30
2023-04-09T12:04:39.969Z,27.24
2023-04-09T12:07:12.334Z,27.34
2023-04-09T12:09:51.700Z,27.54
2023-04-09T12:12:26.017Z,28.61
2023-04-09T12:15:02.319Z,29.50
2023-04-09T12:17:36.105Z,29.79
2023-04-09T12:20:10.938Z,29.99
2023-04-09T12:22:43.947Z,30.14
2023-04-09T12:25:15.512Z,30.36
2023-04-09T12:27:46.382Z,30.59
2023-04-09T12:30:21.764Z,30.75
2023-04-09T12:32:51.481Z,30.90
2023-04-09T12:35:25.136Z,30.28
2023-04-09T12:37:56.269Z,29.88
2023-04-09T12:40:33.582Z,29.91
2023-04-09T12:43:03.501Z,30.02
2023-04-09T12:45:38.479Z,30.19
2023-04-09T12:48:09.516Z,30.41
2023-04-09T12:50:39.495Z,30.55
2023-04-09T12:53:13.933Z,30.74
2023-04-09T12:55:49.848Z,31.06
2023-04-09T12:58:20.068Z,31.28
2023-04-09T13:00:51.771Z,31.45
2023-04-09T13:03:23.061Z,31.77
2023-04-09T13:05:54.455Z,31.89
2023-04-09T13:08:25.883Z,32.60
2023-04-09T13:11:02.035Z,32.54
2023-04-09T13:13:38.578Z,32.52
2023-04-09T13:17:19.868Z,32.96
2023-04-09T13:19:52.766Z,33.00
2023-04-09T13:22:24.156Z,32.94
2023-04-09T13:25:27.557Z,33.31
2023-04-09T13:28:11.602Z,33.48
2023-04-09T13:30:44.424Z,33.54
2023-04-09T13:33:14.075Z,33.59
2023-04-09T13:35:45.900Z,33.70
2023-04-09T13:38:15.518Z,33.84
2023-04-09T13:40:47.688Z,33.94
2023-04-09T13:43:23.112Z,34.15
2023-04-09T13:45:52.086Z,34.55
2023-04-09T13:48:23.100Z,34.36
2023-04-09T13:50:52.585Z,34.29
2023-04-09T13:53:25.284Z,34.34
2023-04-09T13:55:55.452Z,34.44
2023-04-09T13:58:26.451Z,34.57
2023-04-09T14:01:03.284Z,34.68
2023-04-09T14:03:42.372Z,34.80
2023-04-09T14:06:11.718Z,34.93
2023-04-09T14:08:50.489Z,35.11
2023-04-09T14:11:20.136Z,35.99
2023-04-09T14:13:51.174Z,36.00
2023-04-09T14:16:21.663Z,35.19
2023-04-09T14:18:52.645Z,35.16
2023-04-09T14:21:22.670Z,35.18
2023-04-09T14:23:52.291Z,35.19
2023-04-09T14:26:24.121Z,35.22
2023-04-09T14:28:55.730Z,35.28
2023-04-09T14:31:32.158Z,35.41
2023-04-09T14:34:02.934Z,35.84
2023-04-09T14:36:33.637Z,36.72
2023-04-09T14:39:03.000Z,37.16
2023-04-09T14:41:36.104Z,37.34
2023-04-09T14:44:08.024Z,37.52
2023-04-09T14:46:39.632Z,37.53
2023-04-09T14:49:11.684Z,37.53
2023-04-09T14:51:43.396Z,37.57
2023-04-09T14:54:13.787Z,37.61
2023-04-09T14:56:44.417Z,37.65
2023-04-09T14:59:16.099Z,36.72
2023-04-09T15:01:47.540Z,36.20
2023-04-09T15:04:18.608Z,36.09
2023-04-09T15:06:49.004Z,36.11
2023-04-09T15:09:19.811Z,36.15
2023-04-09T15:11:50.028Z,36.81
2023-04-09T15:14:21.643Z,36.28
2023-04-09T15:16:52.174Z,37.10
2023-04-09T15:19:23.861Z,36.45
2023-04-09T15:21:54.848Z,36.49
2023-04-09T15:24:23.768Z,36.66
2023-04-09T15:26:55.112Z,36.90
2023-04-09T15:29:25.878Z,36.74
2023-04-09T15:31:55.401Z,36.73
2023-04-09T15:34:27.981Z,36.83
2023-04-09T15:37:02.253Z,36.89
2023-04-09T15:39:33.542Z,37.03
2023-04-09T15:42:03.466Z,37.04
2023-04-09T15:44:34.571Z,37.19
2023-04-09T15:47:05.328Z,37.23
2023-04-09T15:49:38.631Z,38.56
2023-04-09T15:52:08.449Z,37.71
2023-04-09T15:54:39.872Z,37.60
2023-04-09T15:57:11.114Z,37.34
2023-04-09T15:59:45.356Z,37.23
2023-04-09T16:02:18.498Z,37.35
2023-04-09T16:04:48.276Z,37.22
2023-04-09T16:07:20.550Z,37.30
2023-04-09T16:09:51.525Z,37.39
2023-04-09T16:12:21.661Z,37.46
2023-04-09T16:14:51.261Z,37.43
2023-04-09T16:17:23.050Z,37.33
2023-04-09T16:19:52.523Z,37.31
2023-04-09T16:22:23.177Z,37.29
2023-04-09T16:24:53.871Z,37.27
2023-04-09T16:27:24.294Z,37.31
2023-04-09T16:29:55.367Z,37.33
2023-04-09T16:32:28.055Z,37.46
2023-04-09T16:35:05.726Z,37.54
2023-04-09T16:37:35.868Z,37.49
2023-04-09T16:40:10.168Z,37.55
2023-04-09T16:42:40.442Z,37.62
2023-04-09T16:45:12.131Z,37.66
2023-04-09T16:47:43.996Z,38.12
2023-04-09T16:50:14.488Z,38.13
2023-04-09T16:52:46.023Z,38.10
2023-04-09T16:55:15.792Z,37.90
2023-04-09T16:57:47.395Z,37.80
2023-04-09T17:00:27.417Z,37.86
2023-04-09T17:03:06.392Z,38.05
2023-04-09T17:05:38.099Z,38.11
2023-04-09T17:08:09.129Z,38.18
2023-04-09T17:10:39.555Z,38.29
2023-04-09T17:13:14.732Z,38.35
2023-04-09T17:15:46.758Z,38.39
2023-04-09T17:18:16.860Z,38.28
2023-04-09T17:20:48.576Z,38.21
2023-04-09T17:23:19.716Z,39.40
2023-04-09T17:25:50.464Z,39.71
2023-04-09T17:28:20.780Z,39.85
2023-04-09T17:30:50.985Z,39.97
2023-04-09T17:33:22.596Z,40.04
2023-04-09T17:35:54.098Z,40.12
2023-04-09T17:38:27.184Z,40.27
2023-04-09T17:40:59.151Z,39.14
2023-04-09T17:43:33.800Z,38.79
2023-04-09T17:46:05.974Z,38.86
2023-04-09T17:48:38.112Z,38.77
2023-04-09T17:51:07.786Z,38.87
2023-04-09T17:53:38.909Z,39.07
2023-04-09T17:56:09.919Z,39.07
2023-04-09T17:58:38.450Z,39.04
2023-04-09T18:01:14.032Z,39.07
2023-04-09T18:03:49.814Z,39.07
2023-04-09T18:06:19.447Z,39.11
2023-04-09T18:08:50.320Z,39.16
2023-04-09T18:11:19.890Z,39.07
2023-04-09T18:13:51.967Z,39.26
2023-04-09T18:16:23.772Z,39.32
2023-04-09T18:18:54.072Z,39.30
2023-04-09T18:21:23.869Z,39.33
2023-04-09T18:23:53.995Z,39.33
2023-04-09T18:26:23.660Z,39.77
2023-04-09T18:28:55.632Z,39.46
2023-04-09T18:31:32.550Z,39.48
2023-04-09T18:34:04.140Z,39.49
2023-04-09T18:36:36.070Z,39.62
2023-04-09T18:39:07.807Z,39.68
2023-04-09T18:41:38.254Z,39.74
2023-04-09T18:44:09.827Z,39.86
2023-04-09T18:46:40.108Z,39.88
2023-04-09T18:49:11.861Z,39.86
2023-04-09T18:51:43.992Z,39.79
2023-04-09T18:54:16.141Z,39.81
2023-04-09T18:56:47.770Z,39.82
2023-04-09T18:59:18.241Z,41.08
2023-04-09T19:01:47.863Z,40.13
2023-04-09T19:04:18.753Z,39.97
2023-04-09T19:06:51.679Z,39.95
2023-04-09T19:09:21.823Z,40.03
2023-04-09T19:11:51.733Z,40.37
2023-04-09T19:14:22.199Z,39.97
2023-04-09T19:16:52.023Z,39.68
2023-04-09T19:19:24.485Z,39.60
2023-04-09T19:21:55.547Z,39.55
2023-04-09T19:24:27.776Z,39.42
2023-04-09T19:27:11.854Z,39.39
2023-04-09T19:30:04.729Z,39.30
2023-04-09T19:36:11.229Z,39.65
2023-04-09T19:39:21.690Z,39.52
2023-04-09T19:41:51.904Z,39.39
2023-04-09T19:44:23.175Z,39.47
2023-04-09T19:46:52.238Z,39.27
2023-04-09T19:49:29.362Z,39.26
2023-04-09T19:52:34.022Z,39.46
2023-04-09T19:55:07.530Z,39.57
2023-04-09T19:57:46.159Z,39.46
2023-04-09T20:00:18.869Z,39.46
2023-04-09T20:02:53.725Z,39.80
2023-04-09T20:05:23.791Z,39.65
2023-04-09T20:08:05.872Z,39.56
2023-04-09T20:10:40.477Z,39.35
2023-04-09T20:13:18.954Z,39.32
2023-04-09T20:15:51.523Z,39.36
2023-04-09T20:18:23.091Z,39.11
2023-04-09T20:20:54.850Z,38.98
2023-04-09T20:23:25.554Z,38.89
2023-04-09T20:26:00.390Z,38.90
2023-04-09T20:28:36.433Z,38.89
2023-04-09T20:31:11.924Z,38.92
2023-04-09T20:33:44.857Z,38.98
2023-04-09T20:36:20.244Z,39.06
2023-04-09T20:38:55.579Z,39.07
2023-04-09T20:41:35.729Z,39.20
2023-04-09T20:44:10.809Z,39.20
2023-04-09T20:46:44.551Z,40.53
2023-04-09T20:49:16.810Z,40.35
2023-04-09T20:51:49.897Z,39.47
2023-04-09T20:54:39.681Z,39.40
2023-04-09T20:57:13.911Z,39.33
2023-04-09T20:59:43.526Z,39.25
2023-04-09T21:02:16.455Z,39.29
2023-04-09T21:04:46.581Z,39.39
2023-04-09T21:07:15.516Z,39.39
2023-04-09T21:09:44.027Z,39.28
2023-04-09T21:12:13.907Z,39.49
2023-04-09T21:14:45.610Z,40.47
2023-04-09T21:17:14.888Z,40.45
2023-04-09T21:19:44.049Z,40.56
2023-04-09T21:22:14.025Z,40.51
2023-04-09T21:24:43.761Z,40.55
2023-04-09T21:27:14.910Z,40.61
2023-04-09T21:29:43.854Z,40.64
2023-04-09T21:32:13.206Z,39.66
2023-04-09T21:34:42.522Z,39.38
2023-04-09T21:37:11.654Z,39.31
2023-04-09T21:39:43.614Z,39.28
2023-04-09T21:42:13.582Z,39.26
2023-04-09T21:44:45.579Z,39.29
2023-04-09T21:47:15.513Z,39.30
2023-04-09T21:49:46.041Z,39.20
2023-04-09T21:52:15.274Z,39.16
2023-04-09T21:54:45.466Z,39.17
2023-04-09T21:57:14.904Z,39.29
2023-04-09T21:59:46.164Z,39.32
2023-04-09T22:02:16.003Z,39.33
2023-04-09T22:04:47.030Z,39.23
2023-04-09T22:07:15.908Z,39.24
2023-04-09T22:09:45.667Z,39.26
2023-04-09T22:12:14.885Z,39.31
2023-04-09T22:14:43.744Z,39.31
2023-04-09T22:17:13.869Z,40.45
2023-04-09T22:19:43.631Z,39.43
2023-04-09T22:22:16.043Z,39.23
2023-04-09T22:24:46.825Z,39.16
2023-04-09T22:27:17.121Z,40.17
2023-04-09T22:29:47.462Z,40.50
2023-04-09T22:32:18.511Z,40.15
2023-04-09T22:34:47.880Z,40.49
2023-04-09T22:37:19.570Z,39.82
2023-04-09T22:39:47.835Z,39.31
2023-04-09T22:42:17.991Z,39.12
2023-04-09T22:44:47.405Z,39.00
2023-04-09T22:47:16.508Z,40.10
2023-04-09T22:49:46.021Z,40.19
2023-04-09T22:52:15.354Z,40.17
2023-04-09T22:54:44.153Z,40.06
2023-04-09T22:57:14.160Z,39.13
2023-04-09T22:59:44.343Z,39.29
2023-04-09T23:02:13.954Z,38.83
2023-04-09T23:04:43.702Z,38.77
2023-04-09T23:07:13.556Z,38.75
2023-04-09T23:09:43.443Z,38.74
2023-04-09T23:12:11.705Z,38.76
2023-04-09T23:14:42.752Z,38.74
2023-04-09T23:17:11.681Z,38.70
2023-04-09T23:19:42.192Z,38.64
2023-04-09T23:22:11.246Z,38.62
2023-04-09T23:24:40.192Z,38.57
2023-04-09T23:27:10.031Z,38.53
2023-04-09T23:29:40.400Z,38.51
2023-04-09T23:32:10.252Z,38.48
2023-04-09T23:34:41.942Z,38.39
2023-04-09T23:37:11.346Z,38.25
2023-04-09T23:39:41.808Z,38.12
2023-04-09T23:42:11.314Z,37.93
2023-04-09T23:44:42.970Z,37.96
2023-04-09T23:47:12.434Z,37.90
2023-04-09T23:49:44.023Z,38.20
2023-04-09T23:52:13.548Z,37.83
2023-04-09T23:54:51.921Z,37.83
2023-04-09T23:57:23.516Z,37.75
2023-04-09T23:59:52.270Z,37.65
